Terminal Aerodrome Forecast
Issued by NWS Anchorage, AK

Home | Current Version | Previous Version | Text Only | Print | Product List | Glossary On
Versions: 1 2 3 4 5 6 7 8 9 10 11 12 13 14 15 16 17 18 19 20 21 22 23 24 25 26 27
000
FTAK31 PANC 251130
TAFANC
TAF
PANC 251130Z 2512/2618 VRB03KT 2SM BR FEW003 BKN008
      TEMPO 2512/2515 1SM -SN BR BKN003 OVC008
     FM251500 19003KT 4SM BR SCT005 BKN015
     FM252100 VRB05KT P6SM SCT040 BKN200
     FM260600 15005KT P6SM BKN020 BKN060
     FM261400 17006KT P6SM VCSH BKN015 OVC050=

USA.gov is the U.S. government's official web portal to all federal, state and local government web resources and services.